aviador You're here:

KRIW Decoded Metar

RIVERTON in WY, USA
Report Time2017-08-16 14:53:00
UTC Time2017-08-16 15:04:34
Flight Rules vfr VFR
WindCalm
Visibility9999 m
Phenomena:N/A
Clouds:N/A
Expected CloudBase > 2,000 ft AGL from Temp-Dew spread
CeilingNone
Temp14°C (ISA +10)
Dew Point09°C (72% RH)
AAT13.8°C
QNH1021 hPa
Density Alt6,644 ft
Elevation5,568 ft
Report Wrong Elevation
Raw Report
METAR KRIW 161453Z AUTO 00000KT 10SM CLR 14/09 A3015 RMK AO2 SLP166
T01440094 51009=

Extra information for KRIW:More info

Metar Taf Metar & Taf Last 4 Metars F.Rules Stats Wind Profile Meteogram Temp Stats Airport Information Weather charts Add Link Nearby VenuesMetar ALERT Operation Metar Decoded Social comments

AIRNAV info for KRIW